sensor_id;sensor_type;location;lat;lon;timestamp;pressure;altitude;pressure_sealevel;temperature;humidity
75668;BME280;64266;48.798;44.756;2023-02-15T00:03:20;100655.34;;;3.77;62.79
75668;BME280;64266;48.798;44.756;2023-02-15T00:08:23;100651.28;;;3.74;62.36
75668;BME280;64266;48.798;44.756;2023-02-15T00:13:26;100653.94;;;3.66;61.49
75668;BME280;64266;48.798;44.756;2023-02-15T00:18:30;100677.28;;;3.84;62.69
75668;BME280;64266;48.798;44.756;2023-02-15T00:23:33;100619.00;;;3.51;61.22
75668;BME280;64266;48.798;44.756;2023-02-15T00:28:38;100648.97;;;3.57;61.21
75668;BME280;64266;48.798;44.756;2023-02-15T00:33:41;100673.31;;;3.65;61.28
75668;BME280;64266;48.798;44.756;2023-02-15T00:38:44;100670.03;;;3.63;60.63
75668;BME280;64266;48.798;44.756;2023-02-15T00:43:48;100670.38;;;3.60;60.82
75668;BME280;64266;48.798;44.756;2023-02-15T00:48:50;100682.75;;;3.74;60.11
75668;BME280;64266;48.798;44.756;2023-02-15T00:53:53;100687.03;;;3.67;59.41
75668;BME280;64266;48.798;44.756;2023-02-15T00:58:56;100712.31;;;3.60;60.09
75668;BME280;64266;48.798;44.756;2023-02-15T01:03:58;100719.22;;;3.61;60.44
75668;BME280;64266;48.798;44.756;2023-02-15T01:09:03;100684.63;;;3.35;59.85
75668;BME280;64266;48.798;44.756;2023-02-15T01:14:06;100681.00;;;3.36;60.55
75668;BME280;64266;48.798;44.756;2023-02-15T01:19:13;100701.75;;;3.46;60.34
75668;BME280;64266;48.798;44.756;2023-02-15T01:24:16;100697.22;;;3.40;59.52
75668;BME280;64266;48.798;44.756;2023-02-15T01:29:20;100700.03;;;3.30;59.65
75668;BME280;64266;48.798;44.756;2023-02-15T01:34:22;100699.66;;;3.10;58.76
75668;BME280;64266;48.798;44.756;2023-02-15T01:39:26;100745.75;;;3.27;59.45
75668;BME280;64266;48.798;44.756;2023-02-15T01:44:51;100755.16;;;3.06;58.99
75668;BME280;64266;48.798;44.756;2023-02-15T01:50:02;100756.06;;;2.74;58.73
75668;BME280;64266;48.798;44.756;2023-02-15T01:55:07;100761.81;;;2.69;59.94
75668;BME280;64266;48.798;44.756;2023-02-15T02:00:12;100778.81;;;2.73;58.83
75668;BME280;64266;48.798;44.756;2023-02-15T02:05:16;100767.06;;;2.45;58.69
75668;BME280;64266;48.798;44.756;2023-02-15T02:10:21;100806.66;;;2.58;59.21
75668;BME280;64266;48.798;44.756;2023-02-15T02:15:45;100772.63;;;2.18;58.53
75668;BME280;64266;48.798;44.756;2023-02-15T02:26:54;100837.69;;;2.37;57.98
75668;BME280;64266;48.798;44.756;2023-02-15T02:32:08;100832.31;;;2.31;57.93
75668;BME280;64266;48.798;44.756;2023-02-15T02:37:28;100835.38;;;2.10;58.72
75668;BME280;64266;48.798;44.756;2023-02-15T02:47:47;100789.00;;;1.20;56.74
75668;BME280;64266;48.798;44.756;2023-02-15T02:52:52;100867.41;;;1.62;56.47
75668;BME280;64266;48.798;44.756;2023-02-15T03:03:15;100863.16;;;1.27;55.59
75668;BME280;64266;48.798;44.756;2023-02-15T03:08:25;100882.69;;;1.23;55.22
75668;BME280;64266;48.798;44.756;2023-02-15T03:13:32;100876.06;;;1.03;55.36
75668;BME280;64266;48.798;44.756;2023-02-15T03:18:47;100885.97;;;0.99;56.20
75668;BME280;64266;48.798;44.756;2023-02-15T03:24:00;100850.75;;;0.78;55.86
75668;BME280;64266;48.798;44.756;2023-02-15T03:29:07;100889.22;;;0.76;55.59
75668;BME280;64266;48.798;44.756;2023-02-15T03:34:14;100881.28;;;0.42;54.97
75668;BME280;64266;48.798;44.756;2023-02-15T03:39:33;100888.50;;;0.30;56.61
75668;BME280;64266;48.798;44.756;2023-02-15T03:44:49;100908.88;;;0.17;55.82
75668;BME280;64266;48.798;44.756;2023-02-15T03:49:59;100910.06;;;0.05;55.48
75668;BME280;64266;48.798;44.756;2023-02-15T03:55:06;100913.53;;;-0.31;55.28
75668;BME280;64266;48.798;44.756;2023-02-15T04:00:21;100934.25;;;-0.39;56.66
75668;BME280;64266;48.798;44.756;2023-02-15T04:05:47;100931.59;;;-0.67;56.78
75668;BME280;64266;48.798;44.756;2023-02-15T04:10:51;100939.69;;;-0.89;56.33
75668;BME280;64266;48.798;44.756;2023-02-15T04:16:00;100931.66;;;-1.15;56.08
75668;BME280;64266;48.798;44.756;2023-02-15T04:21:09;100956.28;;;-1.19;56.49
75668;BME280;64266;48.798;44.756;2023-02-15T04:26:30;100909.88;;;-1.52;56.39
75668;BME280;64266;48.798;44.756;2023-02-15T04:31:33;100969.31;;;-1.19;58.15
75668;BME280;64266;48.798;44.756;2023-02-15T04:36:38;100937.81;;;-1.54;57.71
75668;BME280;64266;48.798;44.756;2023-02-15T04:41:44;101005.41;;;-1.44;59.12
75668;BME280;64266;48.798;44.756;2023-02-15T04:46:47;100986.00;;;-1.31;59.89
75668;BME280;64266;48.798;44.756;2023-02-15T04:51:51;101012.84;;;-1.30;57.21
75668;BME280;64266;48.798;44.756;2023-02-15T04:56:53;100905.84;;;-1.94;58.76
75668;BME280;64266;48.798;44.756;2023-02-15T05:01:56;100995.72;;;-1.14;58.47
75668;BME280;64266;48.798;44.756;2023-02-15T05:06:59;101024.91;;;-0.91;57.66
75668;BME280;64266;48.798;44.756;2023-02-15T05:12:02;101028.47;;;-0.92;56.24
75668;BME280;64266;48.798;44.756;2023-02-15T05:17:05;101036.44;;;-0.84;56.46
75668;BME280;64266;48.798;44.756;2023-02-15T05:22:08;101027.38;;;-0.99;55.85
75668;BME280;64266;48.798;44.756;2023-02-15T05:27:11;101023.41;;;-0.93;56.34
75668;BME280;64266;48.798;44.756;2023-02-15T05:32:55;101045.31;;;-0.77;55.35
75668;BME280;64266;48.798;44.756;2023-02-15T05:37:58;101051.91;;;-0.82;56.25
75668;BME280;64266;48.798;44.756;2023-02-15T05:43:03;101015.03;;;-1.06;55.38
75668;BME280;64266;48.798;44.756;2023-02-15T05:48:06;101061.22;;;-0.61;56.14
75668;BME280;64266;48.798;44.756;2023-02-15T05:53:10;101063.78;;;-0.22;54.81
75668;BME280;64266;48.798;44.756;2023-02-15T05:58:19;101066.41;;;0.24;54.19
75668;BME280;64266;48.798;44.756;2023-02-15T06:03:24;101057.91;;;0.49;53.91
75668;BME280;64266;48.798;44.756;2023-02-15T06:08:28;101055.09;;;0.88;53.36
75668;BME280;64266;48.798;44.756;2023-02-15T06:13:34;101055.03;;;0.97;52.21
75668;BME280;64266;48.798;44.756;2023-02-15T06:18:40;100974.22;;;0.61;52.13
75668;BME280;64266;48.798;44.756;2023-02-15T06:23:44;101036.47;;;1.61;50.67
75668;BME280;64266;48.798;44.756;2023-02-15T06:28:51;101004.31;;;2.29;48.26
75668;BME280;64266;48.798;44.756;2023-02-15T06:33:55;101043.59;;;2.87;46.67
75668;BME280;64266;48.798;44.756;2023-02-15T06:39:03;101028.09;;;3.01;47.00
75668;BME280;64266;48.798;44.756;2023-02-15T06:44:06;101037.63;;;3.18;46.42
75668;BME280;64266;48.798;44.756;2023-02-15T06:49:10;101029.56;;;3.60;45.00
75668;BME280;64266;48.798;44.756;2023-02-15T06:54:16;101053.94;;;4.01;44.94
75668;BME280;64266;48.798;44.756;2023-02-15T06:59:22;100985.94;;;3.83;43.37
75668;BME280;64266;48.798;44.756;2023-02-15T07:04:33;100894.44;;;3.50;44.06
75668;BME280;64266;48.798;44.756;2023-02-15T07:09:38;100902.66;;;3.86;42.21
75668;BME280;64266;48.798;44.756;2023-02-15T07:14:42;101057.16;;;4.66;42.38
75668;BME280;64266;48.798;44.756;2023-02-15T07:19:45;101045.44;;;4.46;43.25
75668;BME280;64266;48.798;44.756;2023-02-15T07:24:49;101068.41;;;4.44;43.78
75668;BME280;64266;48.798;44.756;2023-02-15T07:29:59;101044.69;;;3.50;44.43
75668;BME280;64266;48.798;44.756;2023-02-15T07:35:04;101097.75;;;3.44;44.65
75668;BME280;64266;48.798;44.756;2023-02-15T07:40:11;101007.34;;;2.50;47.14
75668;BME280;64266;48.798;44.756;2023-02-15T07:45:14;101043.16;;;2.49;47.34
75668;BME280;64266;48.798;44.756;2023-02-15T07:50:16;101083.03;;;2.35;47.77
75668;BME280;64266;48.798;44.756;2023-02-15T07:55:20;101082.78;;;2.21;47.53
75668;BME280;64266;48.798;44.756;2023-02-15T08:00:24;101092.38;;;2.12;47.40
75668;BME280;64266;48.798;44.756;2023-02-15T08:05:29;101114.06;;;2.30;48.89
75668;BME280;64266;48.798;44.756;2023-02-15T08:10:42;101110.09;;;2.18;50.55
75668;BME280;64266;48.798;44.756;2023-02-15T08:16:08;100930.16;;;1.11;50.03
75668;BME280;64266;48.798;44.756;2023-02-15T08:21:15;101100.47;;;2.01;50.62
75668;BME280;64266;48.798;44.756;2023-02-15T08:26:21;101056.41;;;1.62;49.67
75668;BME280;64266;48.798;44.756;2023-02-15T08:31:26;101054.56;;;1.55;50.26
75668;BME280;64266;48.798;44.756;2023-02-15T08:36:31;101132.34;;;1.79;49.56
75668;BME280;64266;48.798;44.756;2023-02-15T08:41:47;101115.03;;;1.60;49.16
75668;BME280;64266;48.798;44.756;2023-02-15T08:46:50;101042.13;;;1.31;49.45
75668;BME280;64266;48.798;44.756;2023-02-15T08:51:54;101108.69;;;2.06;49.56
75668;BME280;64266;48.798;44.756;2023-02-15T08:56:58;101068.41;;;1.73;49.71
75668;BME280;64266;48.798;44.756;2023-02-15T09:02:03;101094.78;;;2.05;50.23
75668;BME280;64266;48.798;44.756;2023-02-15T09:07:20;101048.00;;;1.77;49.91
75668;BME280;64266;48.798;44.756;2023-02-15T09:12:40;101081.72;;;1.62;49.92
75668;BME280;64266;48.798;44.756;2023-02-15T09:17:53;101038.59;;;1.40;49.72
75668;BME280;64266;48.798;44.756;2023-02-15T09:23:03;101126.78;;;1.99;49.89
75668;BME280;64266;48.798;44.756;2023-02-15T09:28:22;101117.47;;;1.79;49.77
75668;BME280;64266;48.798;44.756;2023-02-15T09:33:29;101094.63;;;1.63;50.73
75668;BME280;64266;48.798;44.756;2023-02-15T09:38:33;101110.63;;;1.78;51.22
75668;BME280;64266;48.798;44.756;2023-02-15T10:27:51;101148.19;;;1.77;50.82
75668;BME280;64266;48.798;44.756;2023-02-15T10:40:04;101159.59;;;1.94;49.74
75668;BME280;64266;48.798;44.756;2023-02-15T10:45:44;101162.97;;;1.86;47.84
75668;BME280;64266;48.798;44.756;2023-02-15T10:50:53;101178.88;;;1.93;50.05
75668;BME280;64266;48.798;44.756;2023-02-15T11:01:27;101177.47;;;1.81;50.42
75668;BME280;64266;48.798;44.756;2023-02-15T11:06:34;101149.28;;;1.57;49.29
75668;BME280;64266;48.798;44.756;2023-02-15T11:11:42;101170.22;;;1.75;49.88
75668;BME280;64266;48.798;44.756;2023-02-15T11:16:54;101130.28;;;1.47;50.19
75668;BME280;64266;48.798;44.756;2023-02-15T11:22:04;101180.69;;;1.75;49.97
75668;BME280;64266;48.798;44.756;2023-02-15T11:27:22;101180.22;;;1.79;48.78
75668;BME280;64266;48.798;44.756;2023-02-15T11:32:33;101175.22;;;1.86;49.13
75668;BME280;64266;48.798;44.756;2023-02-15T11:37:53;101201.28;;;1.95;50.05
75668;BME280;64266;48.798;44.756;2023-02-15T11:43:29;101192.47;;;1.79;48.32
75668;BME280;64266;48.798;44.756;2023-02-15T11:48:30;101213.91;;;1.82;49.95
75668;BME280;64266;48.798;44.756;2023-02-15T11:53:38;101211.16;;;1.84;50.63
75668;BME280;64266;48.798;44.756;2023-02-15T11:59:06;101220.72;;;1.75;49.03
75668;BME280;64266;48.798;44.756;2023-02-15T12:05:09;101228.69;;;1.56;49.49
75668;BME280;64266;48.798;44.756;2023-02-15T12:10:26;101237.34;;;1.56;49.90
75668;BME280;64266;48.798;44.756;2023-02-15T12:15:35;101233.38;;;1.52;49.79
75668;BME280;64266;48.798;44.756;2023-02-15T12:20:40;101237.19;;;1.58;50.16
75668;BME280;64266;48.798;44.756;2023-02-15T12:25:53;101259.78;;;1.77;49.78
75668;BME280;64266;48.798;44.756;2023-02-15T12:31:23;101260.28;;;1.62;48.41
75668;BME280;64266;48.798;44.756;2023-02-15T12:36:47;101280.06;;;1.47;49.80
75668;BME280;64266;48.798;44.756;2023-02-15T12:42:30;101249.38;;;1.22;49.45
75668;BME280;64266;48.798;44.756;2023-02-15T12:48:42;101294.00;;;1.38;48.90
75668;BME280;64266;48.798;44.756;2023-02-15T12:54:55;101152.19;;;0.18;49.27
75668;BME280;64266;48.798;44.756;2023-02-15T13:05:35;101263.22;;;0.49;50.04
75668;BME280;64266;48.798;44.756;2023-02-15T13:16:09;101263.91;;;0.32;50.66
75668;BME280;64266;48.798;44.756;2023-02-15T13:21:29;101215.91;;;-0.04;50.10
75668;BME280;64266;48.798;44.756;2023-02-15T13:26:40;101296.28;;;0.48;50.27
75668;BME280;64266;48.798;44.756;2023-02-15T13:31:51;101240.47;;;0.03;49.26
75668;BME280;64266;48.798;44.756;2023-02-15T13:37:06;101301.94;;;0.15;50.03
75668;BME280;64266;48.798;44.756;2023-02-15T13:42:24;101314.84;;;0.26;49.88
75668;BME280;64266;48.798;44.756;2023-02-15T13:53:26;101375.09;;;0.33;51.48
75668;BME280;64266;48.798;44.756;2023-02-15T13:59:15;101360.66;;;0.00;49.75
75668;BME280;64266;48.798;44.756;2023-02-15T14:15:41;101229.44;;;-1.28;51.15
75668;BME280;64266;48.798;44.756;2023-02-15T14:21:00;101416.81;;;-0.26;52.25
75668;BME280;64266;48.798;44.756;2023-02-15T14:31:34;101416.97;;;-0.48;51.99
75668;BME280;64266;48.798;44.756;2023-02-15T14:36:40;101440.25;;;-0.57;51.85
75668;BME280;64266;48.798;44.756;2023-02-15T14:41:53;101419.19;;;-0.74;52.97
75668;BME280;64266;48.798;44.756;2023-02-15T14:47:05;101453.63;;;-0.61;53.37
75668;BME280;64266;48.798;44.756;2023-02-15T14:52:12;101426.94;;;-0.84;51.68
75668;BME280;64266;48.798;44.756;2023-02-15T15:02:25;101472.31;;;-0.77;52.20
75668;BME280;64266;48.798;44.756;2023-02-15T15:12:39;101480.41;;;-1.12;51.54
75668;BME280;64266;48.798;44.756;2023-02-15T15:18:02;101499.47;;;-1.11;52.46
75668;BME280;64266;48.798;44.756;2023-02-15T15:39:19;101519.69;;;-1.69;53.57
75668;BME280;64266;48.798;44.756;2023-02-15T15:44:39;101529.38;;;-1.71;53.79
75668;BME280;64266;48.798;44.756;2023-02-15T15:49:49;101516.03;;;-1.88;53.46
75668;BME280;64266;48.798;44.756;2023-02-15T15:55:03;101521.25;;;-1.88;53.29
75668;BME280;64266;48.798;44.756;2023-02-15T16:00:41;101522.06;;;-1.99;52.46
75668;BME280;64266;48.798;44.756;2023-02-15T16:05:46;101547.56;;;-2.04;53.03
75668;BME280;64266;48.798;44.756;2023-02-15T16:10:50;101523.91;;;-2.34;53.91
75668;BME280;64266;48.798;44.756;2023-02-15T16:15:54;101553.06;;;-2.31;53.81
75668;BME280;64266;48.798;44.756;2023-02-15T16:20:59;101553.72;;;-2.51;54.78
75668;BME280;64266;48.798;44.756;2023-02-15T16:31:27;101544.69;;;-2.80;53.92
75668;BME280;64266;48.798;44.756;2023-02-15T16:36:29;101538.53;;;-2.79;53.78
75668;BME280;64266;48.798;44.756;2023-02-15T16:41:32;101577.69;;;-2.58;54.15
75668;BME280;64266;48.798;44.756;2023-02-15T16:46:41;101600.38;;;-2.49;53.70
75668;BME280;64266;48.798;44.756;2023-02-15T16:51:54;101587.63;;;-2.52;53.82
75668;BME280;64266;48.798;44.756;2023-02-15T16:56:58;101575.63;;;-2.66;52.61
75668;BME280;64266;48.798;44.756;2023-02-15T17:02:12;101609.91;;;-2.50;52.98
75668;BME280;64266;48.798;44.756;2023-02-15T17:13:22;101616.94;;;-2.63;53.51
75668;BME280;64266;48.798;44.756;2023-02-15T17:18:27;101624.06;;;-2.78;53.46
75668;BME280;64266;48.798;44.756;2023-02-15T17:23:32;101602.31;;;-2.88;53.27
75668;BME280;64266;48.798;44.756;2023-02-15T17:28:36;101618.94;;;-2.90;54.25
75668;BME280;64266;48.798;44.756;2023-02-15T17:33:39;101622.50;;;-3.04;53.86
75668;BME280;64266;48.798;44.756;2023-02-15T17:39:05;101621.66;;;-3.04;53.41
75668;BME280;64266;48.798;44.756;2023-02-15T17:44:08;101632.16;;;-3.06;53.93
75668;BME280;64266;48.798;44.756;2023-02-15T17:49:25;101632.53;;;-3.23;53.32
75668;BME280;64266;48.798;44.756;2023-02-15T17:54:36;101628.06;;;-3.34;53.89
75668;BME280;64266;48.798;44.756;2023-02-15T17:59:57;101623.81;;;-3.35;53.34
75668;BME280;64266;48.798;44.756;2023-02-15T18:05:19;101638.75;;;-3.38;54.25
75668;BME280;64266;48.798;44.756;2023-02-15T18:10:40;101609.97;;;-3.59;54.07
75668;BME280;64266;48.798;44.756;2023-02-15T18:16:01;101630.69;;;-3.46;54.21
75668;BME280;64266;48.798;44.756;2023-02-15T18:21:04;101623.34;;;-3.52;54.08
75668;BME280;64266;48.798;44.756;2023-02-15T18:26:19;101601.41;;;-3.85;54.40
75668;BME280;64266;48.798;44.756;2023-02-15T18:31:22;101636.81;;;-3.60;54.87
75668;BME280;64266;48.798;44.756;2023-02-15T18:36:37;101607.38;;;-3.84;54.39
75668;BME280;64266;48.798;44.756;2023-02-15T18:41:41;101643.03;;;-3.62;54.57
75668;BME280;64266;48.798;44.756;2023-02-15T18:46:44;101584.09;;;-4.09;54.21
75668;BME280;64266;48.798;44.756;2023-02-15T18:51:47;101639.22;;;-3.82;53.42
75668;BME280;64266;48.798;44.756;2023-02-15T18:56:57;101632.16;;;-3.93;55.03
75668;BME280;64266;48.798;44.756;2023-02-15T19:02:01;101605.63;;;-4.09;55.57
75668;BME280;64266;48.798;44.756;2023-02-15T19:07:04;101641.38;;;-3.89;55.76
75668;BME280;64266;48.798;44.756;2023-02-15T19:12:10;101631.31;;;-4.06;54.31
75668;BME280;64266;48.798;44.756;2023-02-15T19:17:16;101625.13;;;-4.03;55.27
75668;BME280;64266;48.798;44.756;2023-02-15T19:22:26;101641.06;;;-3.97;54.69
75668;BME280;64266;48.798;44.756;2023-02-15T19:27:33;101632.88;;;-3.91;54.58
75668;BME280;64266;48.798;44.756;2023-02-15T19:32:38;101639.19;;;-4.07;53.23
75668;BME280;64266;48.798;44.756;2023-02-15T19:37:43;101614.41;;;-4.24;54.62
75668;BME280;64266;48.798;44.756;2023-02-15T19:42:46;101618.47;;;-4.20;55.29
75668;BME280;64266;48.798;44.756;2023-02-15T19:47:50;101596.59;;;-4.28;54.29
75668;BME280;64266;48.798;44.756;2023-02-15T19:52:55;101641.34;;;-4.14;55.02
75668;BME280;64266;48.798;44.756;2023-02-15T19:57:59;101634.19;;;-4.23;54.84
75668;BME280;64266;48.798;44.756;2023-02-15T20:03:02;101632.72;;;-4.27;54.83
75668;BME280;64266;48.798;44.756;2023-02-15T20:08:05;101595.94;;;-4.45;55.26
75668;BME280;64266;48.798;44.756;2023-02-15T20:13:13;101610.94;;;-4.50;55.52
75668;BME280;64266;48.798;44.756;2023-02-15T20:18:16;101635.31;;;-4.27;55.04
75668;BME280;64266;48.798;44.756;2023-02-15T20:23:26;101640.69;;;-4.30;55.35
75668;BME280;64266;48.798;44.756;2023-02-15T20:28:32;101653.06;;;-4.08;54.72
75668;BME280;64266;48.798;44.756;2023-02-15T20:33:35;101638.13;;;-4.17;55.00
75668;BME280;64266;48.798;44.756;2023-02-15T20:38:38;101647.03;;;-4.09;54.09
75668;BME280;64266;48.798;44.756;2023-02-15T20:43:41;101654.94;;;-4.10;54.39
75668;BME280;64266;48.798;44.756;2023-02-15T20:48:43;101641.66;;;-4.31;54.33
75668;BME280;64266;48.798;44.756;2023-02-15T20:53:47;101650.25;;;-4.18;55.55
75668;BME280;64266;48.798;44.756;2023-02-15T20:58:50;101656.59;;;-4.09;55.58
75668;BME280;64266;48.798;44.756;2023-02-15T21:03:53;101638.09;;;-4.30;53.57
75668;BME280;64266;48.798;44.756;2023-02-15T21:08:56;101635.59;;;-4.44;55.22
75668;BME280;64266;48.798;44.756;2023-02-15T21:13:58;101613.81;;;-4.54;56.07
75668;BME280;64266;48.798;44.756;2023-02-15T21:19:01;101663.66;;;-4.38;53.79
75668;BME280;64266;48.798;44.756;2023-02-15T21:24:04;101610.94;;;-4.76;54.48
75668;BME280;64266;48.798;44.756;2023-02-15T21:29:14;101656.91;;;-4.53;53.60
75668;BME280;64266;48.798;44.756;2023-02-15T21:34:17;101645.03;;;-4.70;54.48
75668;BME280;64266;48.798;44.756;2023-02-15T21:39:24;101669.25;;;-4.71;53.75
75668;BME280;64266;48.798;44.756;2023-02-15T21:44:27;101617.88;;;-5.04;53.87
75668;BME280;64266;48.798;44.756;2023-02-15T21:49:49;101631.19;;;-5.10;53.51
75668;BME280;64266;48.798;44.756;2023-02-15T21:54:51;101656.09;;;-4.95;54.59
75668;BME280;64266;48.798;44.756;2023-02-15T21:59:53;101681.38;;;-4.85;54.68
75668;BME280;64266;48.798;44.756;2023-02-15T22:04:57;101642.41;;;-5.23;55.02
75668;BME280;64266;48.798;44.756;2023-02-15T22:10:00;101680.13;;;-4.93;55.03
75668;BME280;64266;48.798;44.756;2023-02-15T22:15:04;101700.44;;;-4.86;53.53
75668;BME280;64266;48.798;44.756;2023-02-15T22:20:18;101682.91;;;-5.10;53.82
75668;BME280;64266;48.798;44.756;2023-02-15T22:25:25;101674.03;;;-5.20;54.96
75668;BME280;64266;48.798;44.756;2023-02-15T22:30:30;101674.97;;;-5.21;55.34
75668;BME280;64266;48.798;44.756;2023-02-15T22:35:34;101668.97;;;-5.21;54.72
75668;BME280;64266;48.798;44.756;2023-02-15T22:40:38;101673.78;;;-5.29;53.89
75668;BME280;64266;48.798;44.756;2023-02-15T22:45:41;101679.03;;;-5.31;55.48
75668;BME280;64266;48.798;44.756;2023-02-15T22:50:44;101701.22;;;-5.27;55.28
75668;BME280;64266;48.798;44.756;2023-02-15T22:55:47;101700.00;;;-5.21;56.25
75668;BME280;64266;48.798;44.756;2023-02-15T23:00:51;101692.88;;;-5.18;54.96
75668;BME280;64266;48.798;44.756;2023-02-15T23:05:54;101693.63;;;-5.30;55.21
75668;BME280;64266;48.798;44.756;2023-02-15T23:10:57;101706.84;;;-5.20;55.55
75668;BME280;64266;48.798;44.756;2023-02-15T23:16:03;101689.03;;;-5.39;53.96
75668;BME280;64266;48.798;44.756;2023-02-15T23:26:28;101709.41;;;-5.34;54.98
75668;BME280;64266;48.798;44.756;2023-02-15T23:31:34;101701.47;;;-5.45;54.72
75668;BME280;64266;48.798;44.756;2023-02-15T23:36:38;101697.94;;;-5.59;54.36
75668;BME280;64266;48.798;44.756;2023-02-15T23:41:41;101707.44;;;-5.59;54.60
75668;BME280;64266;48.798;44.756;2023-02-15T23:46:45;101714.84;;;-5.53;55.02
75668;BME280;64266;48.798;44.756;2023-02-15T23:51:51;101701.97;;;-5.83;53.78
75668;BME280;64266;48.798;44.756;2023-02-15T23:56:59;101720.72;;;-5.79;54.62
